createdAt,value
2024-05-09T00:00:35.291Z,9.16
2024-05-09T00:03:05.555Z,9.09
2024-05-09T00:05:32.573Z,8.78
2024-05-09T00:07:59.659Z,8.93
2024-05-09T00:10:35.013Z,9.33
2024-05-09T00:13:04.612Z,9.59
2024-05-09T00:15:31.626Z,9.60
2024-05-09T00:17:58.743Z,9.48
2024-05-09T00:20:33.666Z,9.56
2024-05-09T00:23:05.525Z,9.40
2024-05-09T00:25:32.497Z,9.44
2024-05-09T00:27:59.432Z,8.33
2024-05-09T00:30:33.448Z,9.33
2024-05-09T00:33:03.649Z,8.97
2024-05-09T00:35:31.115Z,9.21
2024-05-09T00:37:58.152Z,9.15
2024-05-09T00:40:35.117Z,8.23
2024-05-09T00:43:06.283Z,9.09
2024-05-09T00:45:33.271Z,8.06
2024-05-09T00:48:00.641Z,9.07
2024-05-09T00:50:35.547Z,8.32
2024-05-09T00:53:04.311Z,8.70
2024-05-09T00:55:31.260Z,9.21
2024-05-09T00:57:58.191Z,8.98
2024-05-09T01:00:31.679Z,9.06
2024-05-09T01:03:05.795Z,8.70
2024-05-09T01:05:33.203Z,8.64
2024-05-09T01:08:00.238Z,9.06
2024-05-09T01:10:33.727Z,8.24
2024-05-09T01:13:02.234Z,8.56
2024-05-09T01:15:29.165Z,8.78
2024-05-09T01:17:56.542Z,9.28
2024-05-09T01:20:32.253Z,9.20
2024-05-09T01:23:07.400Z,8.54
2024-05-09T01:25:34.538Z,8.22
2024-05-09T01:28:01.449Z,8.60
2024-05-09T01:30:34.369Z,8.90
2024-05-09T01:33:04.192Z,8.93
2024-05-09T01:35:31.559Z,8.62
2024-05-09T01:37:58.612Z,9.91
2024-05-09T01:40:35.507Z,9.75
2024-05-09T01:43:05.361Z,9.48
2024-05-09T01:45:32.311Z,9.98
2024-05-09T01:47:59.783Z,9.75
2024-05-09T01:50:37.402Z,9.43
2024-05-09T01:53:07.942Z,9.91
2024-05-09T01:55:34.979Z,10.22
2024-05-09T01:58:01.927Z,10.35
2024-05-09T02:00:36.161Z,10.01
2024-05-09T02:03:06.986Z,9.38
2024-05-09T02:05:34.206Z,10.17
2024-05-09T02:08:01.337Z,9.07
2024-05-09T02:10:32.534Z,9.53
2024-05-09T02:13:00.285Z,9.88
2024-05-09T02:15:27.206Z,10.10
2024-05-09T02:17:54.501Z,9.93
2024-05-09T02:22:51.505Z,9.87
2024-05-09T02:25:18.622Z,10.28
2024-05-09T02:27:45.566Z,10.01
2024-05-09T02:30:18.669Z,10.69
2024-05-09T02:32:53.120Z,10.60
2024-05-09T02:35:20.309Z,10.91
2024-05-09T02:37:47.369Z,10.95
2024-05-09T02:40:14.973Z,10.74
2024-05-09T02:42:45.160Z,11.04
2024-05-09T02:45:12.085Z,10.42
2024-05-09T02:47:39.089Z,10.04
2024-05-09T02:50:08.037Z,10.57
2024-05-09T02:52:35.278Z,10.90
2024-05-09T02:55:02.225Z,10.37
2024-05-09T02:57:29.188Z,10.35
2024-05-09T02:59:56.129Z,10.60
2024-05-09T03:02:23.183Z,10.79
2024-05-09T03:04:50.220Z,11.08
2024-05-09T03:07:19.750Z,11.27
2024-05-09T03:09:47.051Z,11.12
2024-05-09T03:12:14.130Z,11.14
2024-05-09T03:14:41.187Z,11.45
2024-05-09T03:17:08.237Z,10.95
2024-05-09T03:19:35.295Z,11.12
2024-05-09T03:22:02.320Z,10.71
2024-05-09T03:24:29.307Z,11.07
2024-05-09T03:26:56.252Z,11.18
2024-05-09T03:29:23.219Z,10.45
2024-05-09T03:31:50.393Z,10.20
2024-05-09T03:34:17.420Z,12.00
2024-05-09T03:36:44.354Z,11.88
2024-05-09T03:39:11.302Z,12.41
2024-05-09T03:41:38.251Z,11.64
2024-05-09T03:44:05.259Z,12.07
2024-05-09T03:46:32.234Z,12.11
2024-05-09T03:48:59.267Z,12.44
2024-05-09T03:51:26.232Z,12.25
2024-05-09T03:53:53.204Z,11.87
2024-05-09T03:56:20.199Z,11.97
2024-05-09T03:58:47.239Z,12.20
2024-05-09T04:01:14.245Z,11.77
2024-05-09T04:03:41.357Z,11.37
2024-05-09T04:06:08.396Z,9.51
2024-05-09T04:08:35.864Z,11.54
2024-05-09T04:11:02.985Z,11.64
2024-05-09T04:13:29.978Z,11.68
2024-05-09T04:15:56.933Z,12.18
2024-05-09T04:18:23.981Z,12.81
2024-05-09T04:20:51.129Z,12.89
2024-05-09T04:23:18.206Z,12.50
2024-05-09T04:25:45.807Z,13.10
2024-05-09T04:28:12.974Z,13.90
2024-05-09T04:30:41.512Z,13.49
2024-05-09T04:33:11.318Z,13.27
2024-05-09T04:35:39.950Z,13.19
2024-05-09T04:38:06.835Z,13.60
2024-05-09T04:40:36.191Z,13.12
2024-05-09T04:43:03.994Z,13.58
2024-05-09T04:45:30.693Z,13.13
2024-05-09T04:47:57.514Z,13.06
2024-05-09T04:50:33.604Z,13.26
2024-05-09T04:53:04.229Z,13.27
2024-05-09T04:55:30.896Z,12.06
2024-05-09T04:57:57.648Z,12.95
2024-05-09T05:00:32.517Z,13.93
2024-05-09T05:03:03.383Z,14.00
2024-05-09T05:05:30.202Z,12.59
2024-05-09T05:07:56.814Z,13.91
2024-05-09T05:10:29.594Z,12.31
2024-05-09T05:13:02.106Z,13.52
2024-05-09T05:15:28.656Z,12.93
2024-05-09T05:17:55.335Z,13.27
2024-05-09T05:20:30.589Z,13.92
2024-05-09T05:22:59.887Z,12.20
2024-05-09T05:25:26.479Z,13.39
2024-05-09T05:27:53.027Z,11.11
2024-05-09T05:30:25.071Z,13.05
2024-05-09T05:32:56.022Z,13.67
2024-05-09T05:35:23.228Z,12.07
2024-05-09T05:37:50.277Z,12.49
2024-05-09T05:40:27.597Z,11.94
2024-05-09T05:43:00.022Z,11.23
2024-05-09T05:45:26.963Z,11.74
2024-05-09T05:47:54.070Z,12.14
2024-05-09T05:50:27.762Z,13.00
2024-05-09T05:53:01.799Z,12.16
2024-05-09T05:55:28.842Z,11.91
2024-05-09T05:57:55.800Z,11.76
2024-05-09T06:00:29.759Z,11.60
2024-05-09T06:03:04.370Z,12.15
2024-05-09T06:05:31.547Z,11.81
2024-05-09T06:07:58.667Z,12.32
2024-05-09T06:10:30.400Z,11.67
2024-05-09T06:13:04.567Z,11.70
2024-05-09T06:15:31.499Z,11.76
2024-05-09T06:17:59.018Z,11.55
2024-05-09T06:20:34.744Z,13.14
2024-05-09T06:23:04.397Z,11.67
2024-05-09T06:25:31.696Z,12.09
2024-05-09T06:27:58.685Z,13.16
2024-05-09T06:30:30.968Z,12.78
2024-05-09T06:33:05.825Z,11.93
2024-05-09T06:35:33.432Z,13.35
2024-05-09T06:38:00.622Z,11.89
2024-05-09T06:40:36.242Z,13.04
2024-05-09T06:43:05.868Z,11.98
2024-05-09T06:45:32.831Z,12.55
2024-05-09T06:48:00.047Z,12.52
2024-05-09T06:50:31.116Z,12.92
2024-05-09T06:53:02.795Z,12.27
2024-05-09T06:55:29.884Z,12.20
2024-05-09T06:57:56.847Z,11.06
2024-05-09T07:00:30.739Z,12.92
2024-05-09T07:03:05.975Z,12.39
2024-05-09T07:05:33.227Z,12.03
2024-05-09T07:08:00.339Z,12.82
2024-05-09T07:10:33.040Z,12.70
2024-05-09T07:13:02.330Z,12.60
2024-05-09T07:15:29.363Z,12.57
2024-05-09T07:17:56.672Z,12.17
2024-05-09T07:20:32.257Z,12.50
2024-05-09T07:23:01.935Z,12.97
2024-05-09T07:25:28.749Z,12.32
2024-05-09T07:27:55.410Z,12.10
2024-05-09T07:30:27.591Z,12.18
2024-05-09T07:32:59.877Z,12.55
2024-05-09T07:35:26.844Z,11.88
2024-05-09T07:37:53.693Z,12.23
2024-05-09T07:42:49.809Z,11.34
2024-05-09T07:45:39.009Z,11.84
2024-05-09T07:52:22.948Z,11.13
2024-05-09T07:53:38.358Z,11.53
2024-05-09T07:56:05.622Z,11.60
2024-05-09T07:58:32.280Z,11.91
2024-05-09T08:00:58.977Z,11.52
2024-05-09T08:03:25.717Z,10.79
2024-05-09T08:05:52.399Z,10.79
2024-05-09T08:08:18.986Z,10.51
2024-05-09T08:10:45.698Z,9.77
2024-05-09T08:13:12.485Z,9.31
2024-05-09T08:15:39.280Z,10.06
2024-05-09T08:18:06.022Z,10.17
2024-05-09T08:20:35.274Z,10.52
2024-05-09T08:23:02.612Z,10.33
2024-05-09T08:25:29.575Z,10.23
2024-05-09T08:27:56.576Z,10.05
2024-05-09T08:30:30.145Z,9.75
2024-05-09T08:33:03.064Z,9.88
2024-05-09T08:35:29.703Z,10.40
2024-05-09T08:37:56.424Z,10.35
2024-05-09T08:40:30.718Z,9.85
2024-05-09T08:43:01.669Z,10.52
2024-05-09T08:45:28.320Z,10.59
2024-05-09T08:47:55.096Z,10.57
2024-05-09T08:50:31.569Z,9.95
2024-05-09T08:53:04.284Z,10.10
2024-05-09T08:55:30.839Z,10.44
2024-05-09T08:57:57.422Z,10.63
2024-05-09T09:00:33.736Z,11.24
2024-05-09T09:03:03.718Z,10.52
2024-05-09T09:05:30.471Z,10.93
2024-05-09T09:07:57.121Z,10.87
2024-05-09T09:10:29.822Z,10.91
2024-05-09T09:12:58.911Z,10.27
2024-05-09T09:15:25.508Z,10.49
2024-05-09T09:17:52.197Z,10.48
2024-05-09T09:20:25.971Z,10.56
2024-05-09T09:22:55.917Z,10.23
2024-05-09T09:25:22.495Z,9.89
2024-05-09T09:27:49.053Z,10.47
2024-05-09T09:30:27.832Z,10.95
2024-05-09T09:33:02.531Z,10.78
2024-05-09T09:35:29.615Z,10.83
2024-05-09T09:37:56.551Z,9.92
2024-05-09T09:40:31.007Z,10.36
2024-05-09T09:42:59.598Z,10.46
2024-05-09T09:45:26.629Z,10.60
2024-05-09T09:47:53.765Z,9.92
2024-05-09T09:50:27.574Z,10.39
2024-05-09T09:53:00.522Z,10.15
2024-05-09T09:55:27.559Z,10.31
2024-05-09T09:57:54.571Z,10.40
2024-05-09T10:00:27.124Z,10.27
2024-05-09T10:02:59.362Z,10.52
2024-05-09T10:05:26.566Z,10.39
2024-05-09T10:07:53.954Z,10.09
2024-05-09T10:10:27.319Z,10.68
2024-05-09T10:12:58.974Z,10.78
2024-05-09T10:15:25.955Z,10.94
2024-05-09T10:17:53.151Z,11.40
2024-05-09T10:20:22.220Z,11.40
2024-05-09T10:22:54.624Z,11.30
2024-05-09T10:25:21.723Z,11.36
2024-05-09T10:27:48.867Z,10.72
2024-05-09T10:30:21.670Z,11.29
2024-05-09T10:32:56.492Z,12.30
2024-05-09T10:35:23.568Z,12.04
2024-05-09T10:37:50.488Z,11.55
2024-05-09T10:40:25.734Z,11.31
2024-05-09T10:42:56.336Z,11.65
2024-05-09T10:45:23.443Z,11.51
2024-05-09T10:47:50.546Z,11.81
2024-05-09T10:50:25.073Z,11.86
2024-05-09T10:52:55.567Z,10.92
2024-05-09T10:55:22.707Z,11.20
2024-05-09T10:57:49.925Z,11.13
2024-05-09T11:00:27.031Z,11.38
2024-05-09T11:02:57.536Z,10.79
2024-05-09T11:05:24.698Z,11.30
2024-05-09T11:07:51.742Z,10.59
2024-05-09T11:10:27.110Z,11.00
2024-05-09T11:12:58.862Z,10.72
2024-05-09T11:15:25.906Z,10.86
2024-05-09T11:17:53.116Z,11.23
2024-05-09T11:20:26.869Z,10.34
2024-05-09T11:22:56.777Z,10.54
2024-05-09T11:25:23.875Z,10.37
2024-05-09T11:27:50.540Z,10.19
2024-05-09T11:30:24.207Z,10.22
2024-05-09T11:32:56.665Z,10.71
2024-05-09T11:35:23.394Z,10.78
2024-05-09T11:37:49.941Z,10.17
2024-05-09T11:40:21.554Z,9.89
2024-05-09T11:42:53.426Z,10.37
2024-05-09T11:45:20.195Z,9.61
2024-05-09T11:47:46.877Z,9.41
2024-05-09T11:50:22.342Z,9.07
2024-05-09T11:52:53.818Z,8.83
2024-05-09T11:55:20.849Z,9.09
2024-05-09T11:57:48.182Z,9.63
2024-05-09T12:00:18.278Z,8.71
2024-05-09T12:02:51.883Z,8.56
2024-05-09T12:05:18.618Z,8.46
2024-05-09T12:07:45.270Z,8.33
2024-05-09T12:10:16.660Z,8.81
2024-05-09T12:12:46.084Z,8.60
2024-05-09T12:15:12.694Z,7.68
2024-05-09T12:17:39.327Z,8.39
2024-05-09T12:20:11.319Z,8.19
2024-05-09T12:22:43.720Z,8.58
2024-05-09T12:25:10.393Z,8.54
2024-05-09T12:27:37.507Z,7.87
2024-05-09T12:30:05.807Z,7.89
2024-05-09T12:32:34.237Z,8.49
2024-05-09T12:35:01.214Z,8.51
2024-05-09T12:37:28.167Z,7.96
2024-05-09T12:39:55.143Z,7.91
2024-05-09T12:42:27.287Z,7.86
2024-05-09T12:44:55.550Z,7.44
2024-05-09T12:47:22.603Z,7.45
2024-05-09T12:49:49.708Z,7.37
2024-05-09T12:52:16.803Z,7.02
2024-05-09T12:54:43.811Z,7.47
2024-05-09T12:57:10.778Z,6.60
2024-05-09T12:59:37.728Z,6.30
2024-05-09T13:02:04.877Z,6.58
2024-05-09T13:04:32.230Z,6.51
2024-05-09T13:06:59.296Z,6.84
2024-05-09T13:09:26.246Z,6.49
2024-05-09T13:11:53.256Z,6.02
2024-05-09T13:14:20.200Z,6.21
2024-05-09T13:16:47.145Z,5.80
2024-05-09T13:19:14.161Z,5.77
2024-05-09T13:21:41.156Z,5.48
2024-05-09T13:24:08.161Z,5.49
2024-05-09T13:26:35.101Z,6.01
2024-05-09T13:29:02.025Z,6.97
2024-05-09T13:31:29.054Z,5.97
2024-05-09T13:33:56.126Z,5.34
2024-05-09T13:36:23.161Z,5.07
2024-05-09T13:38:49.731Z,4.24
2024-05-09T13:41:16.300Z,4.06
2024-05-09T13:43:42.858Z,4.29
2024-05-09T13:46:09.514Z,4.33
2024-05-09T13:48:36.161Z,4.00
2024-05-09T13:51:02.765Z,3.88
2024-05-09T13:53:29.346Z,4.40
2024-05-09T13:55:56.021Z,4.24
2024-05-09T13:58:22.734Z,4.12
2024-05-09T14:00:49.809Z,3.74
2024-05-09T14:03:17.658Z,3.02
2024-05-09T14:05:46.044Z,2.85
2024-05-09T14:08:12.688Z,2.68
2024-05-09T14:10:39.362Z,3.13
2024-05-09T14:13:05.970Z,3.72
2024-05-09T14:15:32.645Z,3.89
2024-05-09T14:17:59.325Z,3.48
2024-05-09T14:20:31.155Z,2.97
2024-05-09T14:22:58.956Z,3.08
2024-05-09T14:25:25.568Z,2.86
2024-05-09T14:27:52.211Z,2.54
2024-05-09T14:30:26.385Z,2.49
2024-05-09T14:33:00.945Z,3.02
2024-05-09T14:35:27.658Z,3.00
2024-05-09T14:37:54.708Z,2.62
2024-05-09T14:40:31.164Z,3.07
2024-05-09T14:43:06.773Z,2.92
2024-05-09T14:45:33.861Z,2.77
2024-05-09T14:48:01.146Z,2.71
2024-05-09T14:50:35.133Z,2.60
2024-05-09T14:53:05.341Z,2.76
2024-05-09T14:55:32.363Z,2.61
2024-05-09T14:57:59.383Z,2.69
2024-05-09T15:00:33.017Z,3.09
2024-05-09T15:03:03.074Z,3.06
2024-05-09T15:05:30.396Z,2.82
2024-05-09T15:07:57.470Z,2.57
2024-05-09T15:10:33.366Z,2.54
2024-05-09T15:13:02.905Z,2.37
2024-05-09T15:15:29.949Z,2.73
2024-05-09T15:17:56.782Z,2.69
2024-05-09T15:20:31.048Z,2.53
2024-05-09T15:23:01.962Z,2.58
2024-05-09T15:25:28.743Z,2.72
2024-05-09T15:27:55.574Z,2.64
2024-05-09T15:30:29.587Z,2.94
2024-05-09T15:32:58.504Z,2.65
2024-05-09T15:35:25.112Z,2.80
2024-05-09T15:37:51.668Z,2.60
2024-05-09T15:40:25.940Z,2.69
2024-05-09T15:43:01.669Z,2.92
2024-05-09T15:45:28.320Z,2.94
2024-05-09T15:47:54.977Z,2.94
2024-05-09T15:50:31.981Z,2.88
2024-05-09T15:53:03.928Z,2.99
2024-05-09T15:55:30.477Z,2.81
2024-05-09T15:57:57.130Z,2.91
2024-05-09T16:00:29.180Z,2.68
2024-05-09T16:03:03.320Z,3.04
2024-05-09T16:05:30.005Z,2.92
2024-05-09T16:07:56.663Z,3.07
2024-05-09T16:10:26.264Z,2.88
2024-05-09T16:12:58.793Z,3.02
2024-05-09T16:15:25.756Z,2.83
2024-05-09T16:17:52.720Z,2.72
2024-05-09T16:20:33.148Z,2.87
2024-05-09T16:23:05.396Z,2.83
2024-05-09T16:25:32.370Z,3.09
2024-05-09T16:27:59.380Z,2.80
2024-05-09T16:30:33.728Z,2.91
2024-05-09T16:33:02.909Z,3.22
2024-05-09T16:35:30.252Z,2.98
2024-05-09T16:37:57.453Z,3.16
2024-05-09T16:40:34.346Z,3.28
2024-05-09T16:43:06.136Z,3.21
2024-05-09T16:45:33.543Z,3.11
2024-05-09T16:48:01.001Z,3.31
2024-05-09T16:50:32.630Z,3.01
2024-05-09T16:53:01.465Z,3.06
2024-05-09T16:55:28.488Z,3.34
2024-05-09T16:57:55.623Z,3.28
2024-05-09T17:00:31.793Z,3.24
2024-05-09T17:03:07.183Z,3.28
2024-05-09T17:05:35.417Z,3.03
2024-05-09T17:08:02.900Z,3.38
2024-05-09T17:10:33.570Z,3.27
2024-05-09T17:13:02.482Z,3.73
2024-05-09T17:15:30.033Z,3.38
2024-05-09T17:17:57.190Z,3.45
2024-05-09T17:20:31.754Z,3.54
2024-05-09T17:23:02.088Z,3.54
2024-05-09T17:25:29.148Z,3.15
2024-05-09T17:27:56.231Z,3.26
2024-05-09T17:30:29.382Z,3.43
2024-05-09T17:33:02.548Z,3.03
2024-05-09T17:35:29.649Z,3.23
2024-05-09T17:37:56.698Z,3.07
2024-05-09T17:40:31.136Z,3.43
2024-05-09T17:43:02.323Z,3.13
2024-05-09T17:45:29.644Z,3.46
2024-05-09T17:47:56.900Z,3.50
2024-05-09T17:50:30.842Z,3.59
2024-05-09T17:53:02.272Z,3.37
2024-05-09T17:55:29.583Z,3.11
2024-05-09T17:57:56.944Z,3.11
2024-05-09T18:00:36.190Z,3.37
2024-05-09T18:03:06.952Z,3.16
2024-05-09T18:05:34.307Z,3.22
2024-05-09T18:08:01.614Z,3.45
2024-05-09T18:10:35.346Z,3.66
2024-05-09T18:13:06.144Z,3.35
2024-05-09T18:15:33.654Z,3.61
2024-05-09T18:18:00.941Z,3.41
2024-05-09T18:20:37.032Z,3.67
2024-05-09T18:23:09.549Z,3.49
2024-05-09T18:25:36.505Z,3.20
2024-05-09T18:28:03.561Z,3.41
2024-05-09T18:30:34.990Z,3.40
2024-05-09T18:33:04.133Z,3.38
2024-05-09T18:35:31.537Z,3.25
2024-05-09T18:37:58.480Z,3.18
2024-05-09T18:40:32.623Z,3.29
2024-05-09T18:43:03.099Z,3.32
2024-05-09T18:45:30.862Z,3.27
2024-05-09T18:47:58.227Z,3.53
2024-05-09T18:50:34.218Z,3.33
2024-05-09T18:53:04.734Z,3.38
2024-05-09T18:55:31.687Z,3.27
2024-05-09T18:57:58.677Z,3.38
2024-05-09T19:00:33.871Z,3.34
2024-05-09T19:03:04.669Z,3.40
2024-05-09T19:05:32.470Z,3.35
2024-05-09T19:07:59.621Z,3.67
2024-05-09T19:10:33.600Z,3.55
2024-05-09T19:13:05.421Z,3.57
2024-05-09T19:15:36.012Z,3.87
2024-05-09T19:18:03.150Z,3.67
2024-05-09T19:20:34.445Z,3.68
2024-05-09T19:23:03.087Z,4.63
2024-05-09T19:25:30.134Z,5.54
2024-05-09T19:27:57.204Z,4.33
2024-05-09T19:30:32.931Z,4.63
2024-05-09T19:33:05.383Z,4.52
2024-05-09T19:35:32.556Z,5.18
2024-05-09T19:37:59.568Z,6.59
2024-05-09T19:40:31.408Z,5.49
2024-05-09T19:43:00.516Z,5.04
2024-05-09T19:45:27.607Z,4.54
2024-05-09T19:47:54.741Z,5.55
2024-05-09T19:50:30.262Z,5.52
2024-05-09T19:53:03.370Z,4.63
2024-05-09T19:55:30.280Z,4.34
2024-05-09T19:57:57.814Z,4.32
2024-05-09T20:00:32.570Z,4.10
2024-05-09T20:03:03.072Z,4.21
2024-05-09T20:05:30.301Z,4.15
2024-05-09T20:07:57.439Z,4.35
2024-05-09T20:10:29.842Z,4.20
2024-05-09T20:12:59.965Z,4.21
2024-05-09T20:15:27.191Z,3.97
2024-05-09T20:17:54.667Z,4.26
2024-05-09T20:20:32.212Z,4.14
2024-05-09T20:23:04.230Z,3.97
2024-05-09T20:25:31.197Z,4.51
2024-05-09T20:27:58.176Z,4.32
2024-05-09T20:30:31.465Z,4.43
2024-05-09T20:33:00.641Z,4.28
2024-05-09T20:35:27.814Z,4.21
2024-05-09T20:37:54.723Z,4.28
2024-05-09T20:40:28.900Z,4.30
2024-05-09T20:43:00.121Z,4.37
2024-05-09T20:45:27.245Z,4.16
2024-05-09T20:47:54.363Z,4.14
2024-05-09T20:50:29.050Z,4.07
2024-05-09T20:53:03.862Z,4.29
2024-05-09T20:55:30.872Z,4.06
2024-05-09T20:57:57.948Z,4.05
2024-05-09T21:00:34.550Z,3.75
2024-05-09T21:03:07.019Z,4.14
2024-05-09T21:05:34.991Z,3.83
2024-05-09T21:08:02.789Z,3.89
2024-05-09T21:10:32.592Z,4.03
2024-05-09T21:13:00.996Z,4.02
2024-05-09T21:15:28.078Z,4.39
2024-05-09T21:17:55.231Z,4.26
2024-05-09T21:20:28.615Z,3.74
2024-05-09T21:22:58.138Z,4.01
2024-05-09T21:25:25.145Z,4.22
2024-05-09T21:27:52.280Z,4.29
2024-05-09T21:30:31.190Z,4.06
2024-05-09T21:33:06.009Z,4.25
2024-05-09T21:35:33.089Z,4.85
2024-05-09T21:38:00.059Z,4.18
2024-05-09T21:40:33.817Z,4.69
2024-05-09T21:43:02.916Z,4.48
2024-05-09T21:45:29.966Z,4.32
2024-05-09T21:47:57.016Z,4.17
2024-05-09T21:50:31.880Z,4.44
2024-05-09T21:53:05.908Z,4.31
2024-05-09T21:55:32.927Z,4.80
2024-05-09T21:57:59.944Z,4.64
2024-05-09T22:00:34.694Z,4.62
2024-05-09T22:03:04.662Z,4.57
2024-05-09T22:05:31.964Z,4.30
2024-05-09T22:07:59.058Z,4.22
2024-05-09T22:10:30.891Z,4.06
2024-05-09T22:13:01.772Z,4.45
2024-05-09T22:15:28.955Z,4.89
2024-05-09T22:17:57.142Z,4.53
2024-05-09T22:20:33.118Z,3.99
2024-05-09T22:23:03.709Z,3.99
2024-05-09T22:25:31.471Z,4.15
2024-05-09T22:27:59.225Z,4.02
2024-05-09T22:30:34.427Z,4.38
2024-05-09T22:33:05.349Z,4.42
2024-05-09T22:35:32.533Z,4.33
2024-05-09T22:37:59.470Z,4.40
2024-05-09T22:40:38.159Z,4.23
2024-05-09T22:43:13.622Z,4.42
2024-05-09T22:45:40.812Z,4.33
2024-05-09T22:48:08.249Z,4.53
2024-05-09T22:50:36.420Z,4.47
2024-05-09T22:53:03.345Z,4.43
2024-05-09T22:55:30.292Z,4.63
2024-05-09T22:57:57.392Z,4.31
2024-05-09T23:02:54.334Z,4.67
2024-05-09T23:05:21.458Z,4.73
2024-05-09T23:07:48.517Z,4.80
2024-05-09T23:10:21.387Z,4.38
2024-05-09T23:12:55.114Z,4.32
2024-05-09T23:15:22.146Z,4.54
2024-05-09T23:17:49.174Z,4.63
2024-05-09T23:20:22.067Z,4.37
2024-05-09T23:22:56.931Z,4.36
2024-05-09T23:25:24.025Z,4.77
2024-05-09T23:27:51.019Z,4.77
2024-05-09T23:30:28.433Z,4.92
2024-05-09T23:33:01.645Z,4.80
2024-05-09T23:35:28.723Z,4.79
2024-05-09T23:37:55.750Z,4.47
2024-05-09T23:40:23.652Z,4.53
2024-05-09T23:42:53.705Z,4.81
2024-05-09T23:45:20.691Z,4.78
2024-05-09T23:47:47.732Z,4.42
2024-05-09T23:50:20.522Z,4.54
2024-05-09T23:52:50.997Z,4.41
2024-05-09T23:55:18.149Z,4.61
2024-05-09T23:57:45.325Z,4.58
